Time;durP1;ratioP1;P1;durP2;ratioP2;P2;SDS_P1;SDS_P2;PMS_P1;PMS_P2;Temp;Humidity;BMP_temperature;BMP_pressure;BME280_temperature;BME280_humidity;BME280_pressure;Samples;Min_cycle;Max_cycle;Signal;HPM_P1;HPM_P2
2024/01/01 00:00:48;;;;;;;27.17;14.63;;;;;;;;;;5046297;28;20043;-62
2024/01/01 00:03:13;;;;;;;39.22;17.75;;;;;;;;;;5049590;28;20877;-61
2024/01/01 00:05:39;;;;;;;49.58;27.98;;;;;;;;;;5035643;28;20037;-60
2024/01/01 00:08:05;;;;;;;24.00;12.20;;;;;;;;;;5060349;28;20104;-61
2024/01/01 00:10:30;;;;;;;19.45;10.80;;;;;;;;;;5055917;28;20457;-61
2024/01/01 00:12:55;;;;;;;24.63;12.25;;;;;;;;;;5055817;28;20454;-62
2024/01/01 00:15:21;;;;;;;25.17;12.38;;;;;;;;;;5054874;28;20079;-62
2024/01/01 00:17:46;;;;;;;23.15;9.90;;;;;;;;;;5055600;28;20040;-61
2024/01/01 00:20:12;;;;;;;18.95;9.75;;;;;;;;;;5052257;28;20032;-62
2024/01/01 00:22:37;;;;;;;29.25;13.43;;;;;;;;;;5052782;28;20029;-61
2024/01/01 00:25:03;;;;;;;16.88;8.73;;;;;;;;;;5052311;28;20120;-62
2024/01/01 00:27:28;;;;;;;15.90;7.95;;;;;;;;;;5052139;28;20056;-62
2024/01/01 00:29:54;;;;;;;16.65;7.68;;;;;;;;;;5052849;28;20432;-63
2024/01/01 00:32:21;;;;;;;19.98;9.60;;;;;;;;;;5047049;28;20370;-62
2024/01/01 00:34:46;;;;;;;21.08;9.25;;;;;;;;;;5033168;28;20040;-62
2024/01/01 00:37:12;;;;;;;14.52;6.82;;;;;;;;;;5032074;28;20033;-62
2024/01/01 00:39:38;;;;;;;13.55;7.18;;;;;;;;;;5050339;28;20466;-61
2024/01/01 00:42:04;;;;;;;17.83;7.47;;;;;;;;;;5052277;28;20055;-60
2024/01/01 00:44:31;;;;;;;13.95;5.30;;;;;;;;;;5053071;28;20032;-62
2024/01/01 00:46:58;;;;;;;15.52;6.65;;;;;;;;;;5052676;28;20029;-62
2024/01/01 00:49:23;;;;;;;13.73;6.28;;;;;;;;;;5052890;28;20056;-61
2024/01/01 00:51:49;;;;;;;15.75;7.22;;;;;;;;;;5051175;28;20068;-61
2024/01/01 00:54:14;;;;;;;20.75;5.60;;;;;;;;;;5051539;28;20477;-62
2024/01/01 00:56:40;;;;;;;15.98;6.00;;;;;;;;;;5052715;28;20036;-62
2024/01/01 00:59:05;;;;;;;15.32;5.90;;;;;;;;;;5052040;28;20052;-62
2024/01/01 01:01:31;;;;;;;10.40;4.85;;;;;;;;;;5052773;28;20466;-62
2024/01/01 01:03:56;;;;;;;15.23;5.70;;;;;;;;;;5050403;28;20371;-62
2024/01/01 01:06:22;;;;;;;14.00;5.65;;;;;;;;;;5034844;28;20458;-62
2024/01/01 01:08:47;;;;;;;13.13;4.78;;;;;;;;;;5041110;28;20064;-62
2024/01/01 01:11:13;;;;;;;13.93;4.95;;;;;;;;;;5051574;28;20033;-62
2024/01/01 01:13:38;;;;;;;13.48;4.47;;;;;;;;;;5052222;28;20044;-61
2024/01/01 01:16:04;;;;;;;14.70;5.95;;;;;;;;;;5051938;28;20134;-61
2024/01/01 01:18:29;;;;;;;10.80;4.80;;;;;;;;;;5052103;28;20136;-61
2024/01/01 01:20:54;;;;;;;8.27;3.83;;;;;;;;;;5052518;28;20047;-61
2024/01/01 01:23:20;;;;;;;11.82;4.72;;;;;;;;;;5050661;28;20068;-61
2024/01/01 01:25:45;;;;;;;11.95;3.75;;;;;;;;;;5052406;28;20047;-61
2024/01/01 01:28:10;;;;;;;9.57;4.13;;;;;;;;;;5051243;28;20032;-62
2024/01/01 01:30:36;;;;;;;9.05;3.70;;;;;;;;;;5052247;28;20120;-61
2024/01/01 01:33:01;;;;;;;10.25;3.80;;;;;;;;;;5050986;28;20116;-63
2024/01/01 01:35:27;;;;;;;11.30;3.58;;;;;;;;;;5036433;28;20021;-63
2024/01/01 01:37:52;;;;;;;7.88;3.78;;;;;;;;;;5052119;28;20033;-61
2024/01/01 01:40:18;;;;;;;6.60;2.83;;;;;;;;;;5052295;28;20118;-61
2024/01/01 01:42:47;;;;;;;10.07;3.35;;;;;;;;;;5053884;28;20047;-60
2024/01/01 01:45:13;;;;;;;6.57;3.00;;;;;;;;;;5051017;28;20039;-61
2024/01/01 01:47:39;;;;;;;15.55;5.55;;;;;;;;;;5051945;28;20039;-60
2024/01/01 01:50:06;;;;;;;6.97;2.72;;;;;;;;;;5033427;28;20116;-61
2024/01/01 01:52:36;;;;;;;12.48;4.18;;;;;;;;;;5051623;28;20040;-61
2024/01/01 01:55:02;;;;;;;8.70;2.75;;;;;;;;;;5049763;28;20094;-61
2024/01/01 01:57:28;;;;;;;11.25;4.00;;;;;;;;;;5048269;28;20033;-61
2024/01/01 01:59:54;;;;;;;7.32;2.63;;;;;;;;;;5051881;28;20036;-61
2024/01/01 02:02:22;;;;;;;9.45;3.58;;;;;;;;;;5047241;28;20041;-62
2024/01/01 02:04:49;;;;;;;9.27;3.03;;;;;;;;;;5051673;28;20021;-62
2024/01/01 02:07:15;;;;;;;7.05;2.42;;;;;;;;;;5048619;28;20373;-62
2024/01/01 02:09:41;;;;;;;4.85;1.90;;;;;;;;;;5049597;28;20497;-60
2024/01/01 02:12:08;;;;;;;8.43;2.20;;;;;;;;;;5048433;28;20496;-62
2024/01/01 02:14:34;;;;;;;6.38;2.20;;;;;;;;;;5048334;28;20544;-61
2024/01/01 02:16:59;;;;;;;11.63;2.63;;;;;;;;;;5019784;28;20154;-64
2024/01/01 02:19:26;;;;;;;6.57;2.20;;;;;;;;;;5050300;28;20033;-61
2024/01/01 02:21:53;;;;;;;9.63;2.42;;;;;;;;;;5050256;28;20033;-62
2024/01/01 02:24:20;;;;;;;7.15;2.25;;;;;;;;;;5048182;28;20037;-62
2024/01/01 02:26:46;;;;;;;6.10;1.65;;;;;;;;;;5050127;28;20477;-62
2024/01/01 02:29:13;;;;;;;12.35;2.67;;;;;;;;;;5044885;28;20036;-62
2024/01/01 02:31:38;;;;;;;8.50;2.13;;;;;;;;;;5040284;28;20037;-63
2024/01/01 02:34:04;;;;;;;10.45;2.67;;;;;;;;;;5026622;28;20031;-62
2024/01/01 02:36:33;;;;;;;7.50;1.70;;;;;;;;;;5048093;28;20037;-63
2024/01/01 02:38:59;;;;;;;10.85;2.83;;;;;;;;;;5049548;28;20381;-63
2024/01/01 02:41:24;;;;;;;9.63;2.10;;;;;;;;;;5060623;28;20033;-61
2024/01/01 02:43:49;;;;;;;7.88;2.08;;;;;;;;;;5050329;28;20064;-62
2024/01/01 02:46:15;;;;;;;6.78;1.58;;;;;;;;;;5049273;28;20040;-61
2024/01/01 02:48:40;;;;;;;4.22;1.60;;;;;;;;;;5047371;28;20519;-61
2024/01/01 02:51:05;;;;;;;5.57;1.67;;;;;;;;;;5049317;28;20033;-61
2024/01/01 02:53:32;;;;;;;4.95;1.45;;;;;;;;;;5049727;28;20053;-60
2024/01/01 02:55:58;;;;;;;5.00;1.80;;;;;;;;;;5048382;28;20040;-61
2024/01/01 02:58:23;;;;;;;3.97;1.75;;;;;;;;;;5056734;28;20037;-60
2024/01/01 03:00:48;;;;;;;5.40;1.58;;;;;;;;;;5050061;28;20047;-60
2024/01/01 03:03:14;;;;;;;4.88;1.92;;;;;;;;;;5049393;28;20044;-60
2024/01/01 03:05:40;;;;;;;2.90;1.27;;;;;;;;;;5050737;28;20454;-61
2024/01/01 03:08:07;;;;;;;5.80;1.95;;;;;;;;;;5049232;28;20120;-61
2024/01/01 03:10:32;;;;;;;6.30;1.40;;;;;;;;;;5049844;28;20037;-61
2024/01/01 03:12:58;;;;;;;11.48;1.75;;;;;;;;;;5048376;28;20426;-62
2024/01/01 03:15:23;;;;;;;6.72;1.52;;;;;;;;;;5061619;28;20040;-60
2024/01/01 03:17:48;;;;;;;3.78;1.42;;;;;;;;;;5055879;28;20044;-60
2024/01/01 03:20:14;;;;;;;4.15;1.60;;;;;;;;;;5047824;28;20425;-61
2024/01/01 03:22:39;;;;;;;5.18;1.60;;;;;;;;;;5048425;28;20036;-61
2024/01/01 03:25:05;;;;;;;5.80;1.63;;;;;;;;;;5048098;28;20049;-61
2024/01/01 03:27:31;;;;;;;7.88;1.80;;;;;;;;;;5049556;28;20385;-62
2024/01/01 03:29:56;;;;;;;9.27;2.03;;;;;;;;;;5051277;28;20040;-62
2024/01/01 03:32:21;;;;;;;3.33;1.42;;;;;;;;;;5043975;28;20112;-61
2024/01/01 03:34:47;;;;;;;8.65;2.13;;;;;;;;;;5042697;28;20045;-62
2024/01/01 03:37:12;;;;;;;3.65;1.55;;;;;;;;;;5052360;28;20112;-60
2024/01/01 03:39:38;;;;;;;7.45;1.80;;;;;;;;;;5051705;28;20029;-62
2024/01/01 03:42:03;;;;;;;7.00;1.58;;;;;;;;;;5051069;28;20484;-63
2024/01/01 03:44:29;;;;;;;8.05;2.30;;;;;;;;;;5053739;28;20033;-62
2024/01/01 03:46:54;;;;;;;7.55;1.80;;;;;;;;;;5051490;28;20029;-62
2024/01/01 03:49:19;;;;;;;7.00;1.58;;;;;;;;;;5037244;28;20610;-62
2024/01/01 03:51:45;;;;;;;6.55;1.75;;;;;;;;;;5052204;28;20072;-61
2024/01/01 03:54:10;;;;;;;4.45;1.58;;;;;;;;;;5038946;28;20085;-61
2024/01/01 03:56:36;;;;;;;7.05;1.73;;;;;;;;;;5049912;28;20045;-61
2024/01/01 03:59:02;;;;;;;9.20;2.00;;;;;;;;;;5052755;28;20479;-62
2024/01/01 04:01:27;;;;;;;9.07;1.98;;;;;;;;;;5053885;28;20025;-60
2024/01/01 04:03:55;;;;;;;10.52;2.25;;;;;;;;;;5053970;28;20031;-62
2024/01/01 04:06:20;;;;;;;10.45;1.90;;;;;;;;;;5053268;28;20432;-61
2024/01/01 04:08:46;;;;;;;13.57;1.92;;;;;;;;;;5053510;28;20457;-61
2024/01/01 04:11:11;;;;;;;6.47;1.80;;;;;;;;;;5037293;28;20041;-61
2024/01/01 04:13:36;;;;;;;12.02;1.80;;;;;;;;;;5053622;28;20041;-61
2024/01/01 04:16:02;;;;;;;6.18;1.80;;;;;;;;;;5034641;28;20029;-62
2024/01/01 04:18:27;;;;;;;10.35;1.95;;;;;;;;;;5053134;28;20055;-61
2024/01/01 04:20:53;;;;;;;10.75;2.50;;;;;;;;;;5053329;28;20159;-62
2024/01/01 04:23:18;;;;;;;8.25;1.95;;;;;;;;;;5053164;28;20048;-62
2024/01/01 04:25:44;;;;;;;9.20;2.92;;;;;;;;;;5053789;28;20484;-62
2024/01/01 04:28:09;;;;;;;9.77;1.92;;;;;;;;;;5052284;28;20044;-61
2024/01/01 04:30:34;;;;;;;17.48;2.70;;;;;;;;;;5053603;28;20029;-61
2024/01/01 04:33:00;;;;;;;7.30;1.92;;;;;;;;;;5034449;28;20032;-62
2024/01/01 04:35:25;;;;;;;12.32;2.30;;;;;;;;;;5037402;28;20030;-62
2024/01/01 04:37:51;;;;;;;10.18;2.00;;;;;;;;;;5032937;28;20033;-63
2024/01/01 04:40:16;;;;;;;8.70;1.98;;;;;;;;;;5047974;28;20020;-61
2024/01/01 04:42:42;;;;;;;8.00;2.25;;;;;;;;;;5052795;28;20041;-61
2024/01/01 04:45:08;;;;;;;12.85;2.38;;;;;;;;;;5037591;28;20384;-62
2024/01/01 04:47:34;;;;;;;6.50;2.00;;;;;;;;;;5052784;28;20025;-61
2024/01/01 04:49:59;;;;;;;14.45;2.10;;;;;;;;;;5052364;28;20036;-62
2024/01/01 04:52:24;;;;;;;9.50;2.08;;;;;;;;;;5052621;28;20031;-61
2024/01/01 04:54:54;;;;;;;9.07;1.75;;;;;;;;;;5051288;28;20036;-61
2024/01/01 04:57:19;;;;;;;9.25;2.22;;;;;;;;;;5050814;28;20166;-61
2024/01/01 04:59:45;;;;;;;9.23;2.10;;;;;;;;;;5051683;28;20412;-60
2024/01/01 05:02:10;;;;;;;9.70;2.03;;;;;;;;;;5051250;28;20043;-61
2024/01/01 05:04:36;;;;;;;7.38;1.33;;;;;;;;;;5051002;28;20109;-62
2024/01/01 05:07:01;;;;;;;7.97;2.17;;;;;;;;;;5052059;28;20033;-61
2024/01/01 05:09:26;;;;;;;9.95;1.85;;;;;;;;;;5051447;28;20069;-62
2024/01/01 05:11:52;;;;;;;8.98;1.80;;;;;;;;;;5052800;28;20040;-62
2024/01/01 05:14:17;;;;;;;8.82;1.58;;;;;;;;;;5050534;28;20111;-62
2024/01/01 05:16:47;;;;;;;8.35;2.10;;;;;;;;;;5051330;28;20535;-62
2024/01/01 05:19:12;;;;;;;7.03;2.30;;;;;;;;;;5050474;28;20059;-62
2024/01/01 05:21:38;;;;;;;10.85;2.45;;;;;;;;;;5048765;28;20469;-62
2024/01/01 05:24:03;;;;;;;6.22;1.73;;;;;;;;;;5039643;28;20075;-61
2024/01/01 05:26:28;;;;;;;9.70;1.85;;;;;;;;;;5031562;28;20035;-62
2024/01/01 05:28:54;;;;;;;7.15;2.00;;;;;;;;;;5048931;28;20457;-62
2024/01/01 05:31:20;;;;;;;11.45;2.35;;;;;;;;;;5057943;28;20297;-62
2024/01/01 05:33:46;;;;;;;9.10;1.88;;;;;;;;;;5047709;28;20037;-61
2024/01/01 05:36:13;;;;;;;9.40;1.70;;;;;;;;;;5045083;28;20099;-61
2024/01/01 05:38:38;;;;;;;6.40;2.00;;;;;;;;;;5031992;28;20091;-62
2024/01/01 05:41:04;;;;;;;9.18;2.05;;;;;;;;;;5046067;28;20040;-62
2024/01/01 05:43:31;;;;;;;7.90;1.90;;;;;;;;;;5049482;28;20110;-62
2024/01/01 05:45:57;;;;;;;6.10;2.03;;;;;;;;;;5049302;28;20396;-62
2024/01/01 05:48:22;;;;;;;13.40;2.45;;;;;;;;;;5047384;28;20158;-62
2024/01/01 05:50:47;;;;;;;12.98;2.17;;;;;;;;;;5050713;28;20359;-63
2024/01/01 05:53:13;;;;;;;13.35;2.25;;;;;;;;;;5043239;28;20115;-63
2024/01/01 05:55:39;;;;;;;6.60;1.92;;;;;;;;;;5039852;28;20021;-63
2024/01/01 05:58:04;;;;;;;8.38;1.83;;;;;;;;;;5047676;28;20033;-63
2024/01/01 06:00:29;;;;;;;7.05;2.17;;;;;;;;;;5050675;28;20358;-62
2024/01/01 06:02:55;;;;;;;15.98;2.00;;;;;;;;;;5051113;28;20032;-63
2024/01/01 06:05:20;;;;;;;12.10;2.67;;;;;;;;;;5061347;28;20033;-62
2024/01/01 06:07:45;;;;;;;7.70;1.90;;;;;;;;;;5064086;28;20043;-62
2024/01/01 06:10:11;;;;;;;8.65;1.90;;;;;;;;;;5047670;28;20037;-63
2024/01/01 06:12:36;;;;;;;13.23;2.78;;;;;;;;;;5049460;28;20040;-62
2024/01/01 06:15:03;;;;;;;10.38;1.95;;;;;;;;;;5030682;28;20029;-62
2024/01/01 06:17:28;;;;;;;9.13;2.20;;;;;;;;;;5051848;28;20024;-62
2024/01/01 06:19:56;;;;;;;11.52;2.10;;;;;;;;;;5051665;28;20116;-63
2024/01/01 06:22:21;;;;;;;13.75;2.28;;;;;;;;;;5047987;28;20037;-63
2024/01/01 06:24:46;;;;;;;9.73;1.90;;;;;;;;;;5051799;28;20572;-63
2024/01/01 06:27:12;;;;;;;6.82;1.58;;;;;;;;;;5050987;28;20033;-63
2024/01/01 06:29:37;;;;;;;7.70;2.10;;;;;;;;;;5052379;28;20146;-63
2024/01/01 06:32:04;;;;;;;9.73;2.28;;;;;;;;;;5050803;28;20440;-64
2024/01/01 06:34:29;;;;;;;7.53;1.90;;;;;;;;;;5043824;28;20113;-63
2024/01/01 06:36:54;;;;;;;8.23;2.33;;;;;;;;;;5031570;28;20493;-62
2024/01/01 06:39:20;;;;;;;10.18;1.65;;;;;;;;;;5046924;28;20091;-62
2024/01/01 06:41:45;;;;;;;7.57;1.77;;;;;;;;;;5045290;28;20041;-62
2024/01/01 06:44:10;;;;;;;13.07;1.98;;;;;;;;;;5044587;28;20032;-63
2024/01/01 06:46:36;;;;;;;7.07;1.77;;;;;;;;;;5051512;28;20032;-62
2024/01/01 06:49:01;;;;;;;6.32;1.65;;;;;;;;;;5050286;28;20389;-62
2024/01/01 06:51:27;;;;;;;9.65;1.92;;;;;;;;;;5051146;28;20040;-62
2024/01/01 06:53:52;;;;;;;6.18;1.80;;;;;;;;;;5049110;28;20381;-62
2024/01/01 06:56:17;;;;;;;7.05;1.90;;;;;;;;;;5050614;28;20093;-62
2024/01/01 06:58:43;;;;;;;7.97;2.08;;;;;;;;;;5050916;28;20029;-62
2024/01/01 07:01:08;;;;;;;5.93;1.95;;;;;;;;;;5034879;28;20030;-62
2024/01/01 07:03:33;;;;;;;7.30;1.60;;;;;;;;;;5035372;28;20104;-62
2024/01/01 07:05:59;;;;;;;4.32;2.00;;;;;;;;;;5047189;28;20029;-63
2024/01/01 07:08:24;;;;;;;5.72;1.55;;;;;;;;;;5055192;28;20025;-63
2024/01/01 07:10:50;;;;;;;6.78;1.92;;;;;;;;;;5054692;28;20104;-61
2024/01/01 07:13:15;;;;;;;8.82;1.83;;;;;;;;;;5054437;28;20120;-64
2024/01/01 07:15:41;;;;;;;5.53;2.05;;;;;;;;;;5055044;28;20029;-62
2024/01/01 07:18:07;;;;;;;5.18;1.90;;;;;;;;;;5053893;28;20457;-63
2024/01/01 07:20:32;;;;;;;8.00;1.55;;;;;;;;;;5054272;28;20049;-62
2024/01/01 07:22:58;;;;;;;12.90;1.90;;;;;;;;;;5054404;28;20112;-62
2024/01/01 07:25:24;;;;;;;8.23;2.33;;;;;;;;;;5054509;28;20029;-62
2024/01/01 07:27:49;;;;;;;4.85;1.88;;;;;;;;;;5054546;28;20165;-62
2024/01/01 07:30:15;;;;;;;4.68;1.50;;;;;;;;;;5053853;28;20487;-63
2024/01/01 07:32:40;;;;;;;5.60;1.60;;;;;;;;;;5054855;28;20032;-62
2024/01/01 07:35:08;;;;;;;5.15;1.60;;;;;;;;;;5039748;28;20033;-63
2024/01/01 07:37:33;;;;;;;9.32;2.00;;;;;;;;;;5034686;28;20121;-64
2024/01/01 07:39:59;;;;;;;7.63;1.73;;;;;;;;;;5049769;28;20112;-63
2024/01/01 07:42:26;;;;;;;5.93;1.45;;;;;;;;;;5054348;28;20067;-62
2024/01/01 07:44:52;;;;;;;7.00;1.60;;;;;;;;;;5053887;28;20033;-63
2024/01/01 07:47:19;;;;;;;4.68;1.73;;;;;;;;;;5053673;28;20635;-62
2024/01/01 07:49:45;;;;;;;6.22;1.73;;;;;;;;;;5053652;28;20036;-62
2024/01/01 07:52:11;;;;;;;8.00;1.90;;;;;;;;;;5053569;28;20028;-63
2024/01/01 07:54:38;;;;;;;5.13;1.48;;;;;;;;;;5054397;28;20028;-62
2024/01/01 07:57:04;;;;;;;8.63;1.85;;;;;;;;;;5052801;28;20029;-61
2024/01/01 07:59:29;;;;;;;7.63;1.60;;;;;;;;;;5054132;28;20029;-60
2024/01/01 08:01:55;;;;;;;5.13;1.65;;;;;;;;;;5053966;28;20028;-61
2024/01/01 08:04:20;;;;;;;5.97;1.77;;;;;;;;;;5053649;28;20040;-60
2024/01/01 08:06:45;;;;;;;8.90;2.00;;;;;;;;;;5053460;28;20029;-60
2024/01/01 08:09:11;;;;;;;7.70;1.98;;;;;;;;;;5053054;28;20506;-60
2024/01/01 08:11:36;;;;;;;5.60;2.20;;;;;;;;;;5054023;28;20091;-62
2024/01/01 08:14:02;;;;;;;6.07;1.70;;;;;;;;;;5052344;28;20079;-63
2024/01/01 08:16:27;;;;;;;6.13;1.67;;;;;;;;;;5053325;28;20028;-63
2024/01/01 08:18:56;;;;;;;7.38;2.00;;;;;;;;;;5053289;28;20087;-61
2024/01/01 08:21:22;;;;;;;5.93;1.60;;;;;;;;;;5053261;28;20033;-63
2024/01/01 08:23:48;;;;;;;8.18;1.95;;;;;;;;;;5053068;28;20095;-61
2024/01/01 08:26:13;;;;;;;3.58;1.23;;;;;;;;;;5052625;28;20377;-62
2024/01/01 08:28:38;;;;;;;11.90;2.13;;;;;;;;;;5053632;28;20044;-61
2024/01/01 08:31:04;;;;;;;9.77;2.08;;;;;;;;;;5052739;28;20040;-61
2024/01/01 08:33:29;;;;;;;4.75;1.52;;;;;;;;;;5052982;28;20163;-61
2024/01/01 08:35:56;;;;;;;3.85;1.55;;;;;;;;;;5033737;28;20465;-62
2024/01/01 08:38:22;;;;;;;5.55;2.00;;;;;;;;;;5048627;28;20036;-61
2024/01/01 08:40:47;;;;;;;7.20;1.77;;;;;;;;;;5053394;28;20037;-61
2024/01/01 08:43:13;;;;;;;5.53;1.60;;;;;;;;;;5052572;28;20044;-62
2024/01/01 08:45:39;;;;;;;6.00;1.70;;;;;;;;;;5052806;28;20090;-61
2024/01/01 08:48:05;;;;;;;7.85;1.80;;;;;;;;;;5051872;28;20029;-61
2024/01/01 08:50:30;;;;;;;4.55;1.55;;;;;;;;;;5052785;28;20036;-63
2024/01/01 08:52:55;;;;;;;3.83;1.48;;;;;;;;;;5052939;28;20028;-62
2024/01/01 08:55:21;;;;;;;6.53;2.13;;;;;;;;;;5049662;28;20606;-61
2024/01/01 08:57:46;;;;;;;5.95;1.27;;;;;;;;;;5053484;28;20059;-61
2024/01/01 09:00:12;;;;;;;5.22;1.55;;;;;;;;;;5051954;28;20037;-61
2024/01/01 09:02:37;;;;;;;6.43;1.50;;;;;;;;;;5052802;28;20380;-60
2024/01/01 09:05:03;;;;;;;5.60;1.20;;;;;;;;;;5051370;28;20036;-62
2024/01/01 09:07:28;;;;;;;6.38;1.23;;;;;;;;;;5052691;28;20025;-60
2024/01/01 09:09:54;;;;;;;3.40;1.38;;;;;;;;;;5052443;28;20052;-60
2024/01/01 09:12:19;;;;;;;6.78;1.63;;;;;;;;;;5051703;28;20086;-59
2024/01/01 09:14:45;;;;;;;8.18;2.22;;;;;;;;;;5034162;28;20480;-62
2024/01/01 09:17:10;;;;;;;5.13;1.80;;;;;;;;;;5051331;28;20029;-61
2024/01/01 09:19:37;;;;;;;5.53;1.50;;;;;;;;;;5052200;28;20047;-61
2024/01/01 09:22:03;;;;;;;4.72;1.42;;;;;;;;;;5043376;28;20150;-63
2024/01/01 09:24:29;;;;;;;2.40;1.40;;;;;;;;;;5031641;28;20402;-62
2024/01/01 09:26:54;;;;;;;5.82;1.63;;;;;;;;;;5050927;28;20033;-63
2024/01/01 09:29:20;;;;;;;3.50;1.50;;;;;;;;;;5051575;28;20889;-63
2024/01/01 09:31:45;;;;;;;5.00;1.73;;;;;;;;;;5051210;28;20153;-62
2024/01/01 09:34:10;;;;;;;6.30;1.92;;;;;;;;;;5030207;28;20065;-64
2024/01/01 09:36:37;;;;;;;7.30;1.80;;;;;;;;;;5049491;28;20048;-61
2024/01/01 09:39:02;;;;;;;8.48;1.65;;;;;;;;;;5051315;28;20071;-62
2024/01/01 09:41:28;;;;;;;5.85;2.03;;;;;;;;;;5050718;28;20060;-62
2024/01/01 09:43:53;;;;;;;4.25;1.83;;;;;;;;;;5033215;28;20033;-64
2024/01/01 09:46:20;;;;;;;5.47;1.90;;;;;;;;;;5051501;28;20592;-64
2024/01/01 09:48:46;;;;;;;4.65;1.50;;;;;;;;;;5034452;28;20025;-63
2024/01/01 09:51:11;;;;;;;6.75;1.67;;;;;;;;;;5050509;28;20087;-64
2024/01/01 09:53:37;;;;;;;4.07;1.65;;;;;;;;;;5050116;28;20037;-63
2024/01/01 09:56:03;;;;;;;3.05;1.55;;;;;;;;;;5049587;28;20036;-62
2024/01/01 09:58:28;;;;;;;5.80;1.80;;;;;;;;;;5051731;28;20076;-61
2024/01/01 10:01:09;;;;;;;9.00;2.42;;;;;;;;;;5050371;28;20132;-61
2024/01/01 10:03:34;;;;;;;3.15;1.88;;;;;;;;;;5051630;28;20100;-61
2024/01/01 10:06:07;;;;;;;7.07;1.70;;;;;;;;;;5050474;28;20111;-63
2024/01/01 10:08:33;;;;;;;6.18;2.15;;;;;;;;;;5015569;28;20119;-63
2024/01/01 10:10:58;;;;;;;7.97;2.10;;;;;;;;;;5050163;28;20107;-64
2024/01/01 10:13:24;;;;;;;5.47;2.03;;;;;;;;;;5050892;28;20428;-60
2024/01/01 10:15:55;;;;;;;5.43;1.58;;;;;;;;;;5041779;28;20033;-63
2024/01/01 10:18:21;;;;;;;4.57;1.77;;;;;;;;;;5031012;28;20083;-63
2024/01/01 10:20:46;;;;;;;6.95;1.98;;;;;;;;;;5033786;28;20029;-63
2024/01/01 10:23:21;;;;;;;10.20;1.92;;;;;;;;;;5050563;28;20687;-62
2024/01/01 10:26:02;;;;;;;5.88;1.63;;;;;;;;;;5050871;28;20055;-63
2024/01/01 10:28:29;;;;;;;;;;;;;;;;;;5050993;28;20105;-59
2024/01/01 10:30:54;;;;;;;5.05;1.90;;;;;;;;;;5040448;28;20269;-60
2024/01/01 10:33:21;;;;;;;6.05;2.00;;;;;;;;;;5049723;28;20094;-60
2024/01/01 10:35:47;;;;;;;4.88;1.80;;;;;;;;;;5050229;28;20037;-60
2024/01/01 10:38:14;;;;;;;3.67;1.60;;;;;;;;;;5057092;28;20037;-62
2024/01/01 10:40:40;;;;;;;9.13;2.10;;;;;;;;;;5057909;28;20052;-60
2024/01/01 10:43:07;;;;;;;3.67;1.45;;;;;;;;;;5038712;28;20470;-60
2024/01/01 10:45:32;;;;;;;7.78;2.00;;;;;;;;;;5038188;28;20026;-60
2024/01/01 10:48:00;;;;;;;9.23;1.88;;;;;;;;;;5052760;28;20482;-63
2024/01/01 10:50:30;;;;;;;8.25;2.00;;;;;;;;;;5057222;28;20033;-61
2024/01/01 10:53:19;;;;;;;9.60;2.00;;;;;;;;;;5057897;28;20368;-61
2024/01/01 10:56:03;;;;;;;7.47;1.98;;;;;;;;;;5077986;28;20038;-61
2024/01/01 10:58:57;;;;;;;6.95;2.10;;;;;;;;;;5078055;28;20043;-61
2024/01/01 11:01:24;;;;;;;5.32;1.90;;;;;;;;;;5070139;28;20029;-61
2024/01/01 11:03:50;;;;;;;6.60;1.55;;;;;;;;;;5058011;28;20037;-61
2024/01/01 11:06:33;;;;;;;7.50;1.98;;;;;;;;;;5056995;28;20036;-61
2024/01/01 11:09:18;;;;;;;5.88;1.52;;;;;;;;;;5037602;28;20041;-63
2024/01/01 11:11:51;;;;;;;9.65;2.05;;;;;;;;;;5051788;28;20051;-61
2024/01/01 11:14:28;;;;;;;7.00;2.40;;;;;;;;;;5057087;28;20079;-61
2024/01/01 11:16:55;;;;;;;4.75;1.58;;;;;;;;;;5057803;28;20025;-61
2024/01/01 11:19:43;;;;;;;5.72;1.80;;;;;;;;;;5056936;28;20040;-61
2024/01/01 11:22:18;;;;;;;7.45;2.22;;;;;;;;;;5042109;28;20105;-63
2024/01/01 11:24:45;;;;;;;4.47;2.20;;;;;;;;;;5056598;28;20128;-62
2024/01/01 11:27:26;;;;;;;8.27;2.58;;;;;;;;;;5057085;28;20032;-60
2024/01/01 11:29:51;;;;;;;;;;;;;;;;;;5056675;28;20021;-60
2024/01/01 11:32:18;;;;;;;6.68;2.40;;;;;;;;;;5055537;28;19920;-59
2024/01/01 11:34:44;;;;;;;7.80;2.80;;;;;;;;;;5047031;28;20033;-60
2024/01/01 11:37:09;;;;;;;9.13;2.53;;;;;;;;;;5035183;28;20058;-62
2024/01/01 11:39:35;;;;;;;4.97;1.80;;;;;;;;;;5037604;28;20052;-60
2024/01/01 11:42:01;;;;;;;8.00;2.45;;;;;;;;;;5049646;28;20029;-61
2024/01/01 11:44:26;;;;;;;7.10;2.08;;;;;;;;;;5056952;28;20033;-59
2024/01/01 11:46:54;;;;;;;8.38;2.30;;;;;;;;;;5056751;28;20457;-57
2024/01/01 11:49:20;;;;;;;10.07;2.28;;;;;;;;;;5053262;28;20025;-59
2024/01/01 11:51:57;;;;;;;11.10;3.20;;;;;;;;;;5052809;28;20135;-59
2024/01/01 11:54:26;;;;;;;10.15;3.40;;;;;;;;;;5053930;28;20040;-59
2024/01/01 11:56:54;;;;;;;9.55;3.08;;;;;;;;;;5054196;28;20422;-60
2024/01/01 11:59:22;;;;;;;9.25;3.53;;;;;;;;;;5053434;28;20484;-59
2024/01/01 12:01:48;;;;;;;9.90;3.33;;;;;;;;;;5053644;28;20045;-61
2024/01/01 12:04:14;;;;;;;3.33;1.88;;;;;;;;;;5053336;28;20040;-61
2024/01/01 12:06:40;;;;;;;7.38;2.80;;;;;;;;;;5054021;28;20036;-59
2024/01/01 12:09:12;;;;;;;10.40;2.10;;;;;;;;;;5053303;28;20025;-61
2024/01/01 12:11:42;;;;;;;7.93;2.40;;;;;;;;;;5053841;28;20091;-62
2024/01/01 12:14:09;;;;;;;7.30;2.38;;;;;;;;;;5034735;28;20079;-60
2024/01/01 12:16:36;;;;;;;14.32;2.15;;;;;;;;;;5053196;28;20424;-62
2024/01/01 12:19:04;;;;;;;6.78;2.08;;;;;;;;;;5042550;28;20032;-63
2024/01/01 12:21:43;;;;;;;6.25;2.40;;;;;;;;;;5045450;28;20029;-62
2024/01/01 12:24:13;;;;;;;6.07;2.10;;;;;;;;;;5051113;28;20548;-62
2024/01/01 12:26:39;;;;;;;10.88;2.30;;;;;;;;;;5035009;28;20041;-63
2024/01/01 12:29:07;;;;;;;8.48;2.10;;;;;;;;;;5052712;28;20031;-63
2024/01/01 12:31:32;;;;;;;7.65;1.70;;;;;;;;;;5042760;28;20042;-62
2024/01/01 12:33:58;;;;;;;10.90;2.47;;;;;;;;;;5040171;28;20044;-61
2024/01/01 12:36:23;;;;;;;3.83;1.92;;;;;;;;;;5043914;28;20037;-62
2024/01/01 12:38:48;;;;;;;10.95;2.40;;;;;;;;;;5052160;28;20060;-60
2024/01/01 12:41:17;;;;;;;8.35;1.95;;;;;;;;;;5045786;28;20470;-61
2024/01/01 12:43:42;;;;;;;6.28;1.88;;;;;;;;;;5052855;28;20037;-61
2024/01/01 12:46:08;;;;;;;6.10;2.28;;;;;;;;;;5052587;28;20035;-63
2024/01/01 12:48:34;;;;;;;6.32;1.73;;;;;;;;;;5052027;28;20028;-62
2024/01/01 12:51:00;;;;;;;7.13;2.08;;;;;;;;;;5050566;28;20469;-65
2024/01/01 12:53:25;;;;;;;7.47;2.17;;;;;;;;;;5052550;28;20025;-60
2024/01/01 12:55:50;;;;;;;10.32;2.42;;;;;;;;;;5053037;28;20043;-62
2024/01/01 12:58:16;;;;;;;4.00;1.60;;;;;;;;;;5051198;28;20461;-61
2024/01/01 13:00:41;;;;;;;8.70;2.30;;;;;;;;;;5034813;28;20033;-61
2024/01/01 13:03:07;;;;;;;11.73;2.33;;;;;;;;;;5051704;28;20461;-62
2024/01/01 13:05:32;;;;;;;7.97;2.22;;;;;;;;;;5053077;28;20453;-62
2024/01/01 13:07:57;;;;;;;4.30;1.65;;;;;;;;;;5052176;28;20036;-62
2024/01/01 13:10:23;;;;;;;6.03;2.08;;;;;;;;;;5052559;28;20469;-61
2024/01/01 13:12:48;;;;;;;8.63;2.03;;;;;;;;;;5052187;28;20115;-61
2024/01/01 13:15:13;;;;;;;6.13;2.10;;;;;;;;;;5051501;28;20033;-64
2024/01/01 13:17:39;;;;;;;8.55;2.05;;;;;;;;;;5052494;28;20065;-63
2024/01/01 13:20:05;;;;;;;9.38;2.72;;;;;;;;;;5051820;28;20032;-64
2024/01/01 13:22:30;;;;;;;8.70;2.10;;;;;;;;;;5051517;28;20095;-62
2024/01/01 13:24:55;;;;;;;6.38;2.17;;;;;;;;;;5052657;28;20047;-61
2024/01/01 13:27:21;;;;;;;8.15;3.38;;;;;;;;;;5051998;28;20153;-62
2024/01/01 13:29:46;;;;;;;9.75;2.70;;;;;;;;;;5051598;28;20032;-62
2024/01/01 13:32:13;;;;;;;6.90;2.20;;;;;;;;;;5038279;28;20080;-61
2024/01/01 13:34:38;;;;;;;9.95;2.33;;;;;;;;;;5039781;28;20041;-61
2024/01/01 13:37:04;;;;;;;8.18;3.03;;;;;;;;;;5051064;28;20032;-63
2024/01/01 13:39:30;;;;;;;10.20;2.65;;;;;;;;;;5050866;28;20033;-61
2024/01/01 13:41:56;;;;;;;8.00;2.30;;;;;;;;;;5050862;28;20033;-61
2024/01/01 13:44:22;;;;;;;7.65;2.40;;;;;;;;;;5045972;28;20040;-63
2024/01/01 13:46:47;;;;;;;7.70;2.22;;;;;;;;;;5051769;28;20036;-63
2024/01/01 13:49:12;;;;;;;11.50;2.42;;;;;;;;;;5050582;28;20393;-63
2024/01/01 13:51:38;;;;;;;9.45;2.80;;;;;;;;;;5051111;28;20424;-62
2024/01/01 13:54:03;;;;;;;3.38;1.65;;;;;;;;;;5033881;28;20043;-62
2024/01/01 13:56:29;;;;;;;9.35;2.50;;;;;;;;;;5050391;28;20052;-60
2024/01/01 13:58:54;;;;;;;8.65;2.47;;;;;;;;;;5051290;28;20064;-61
2024/01/01 14:01:20;;;;;;;9.93;2.58;;;;;;;;;;5050399;28;20116;-60
2024/01/01 14:03:45;;;;;;;10.75;2.58;;;;;;;;;;5050788;28;20087;-61
2024/01/01 14:06:11;;;;;;;10.63;2.40;;;;;;;;;;5050446;28;20039;-61
2024/01/01 14:08:37;;;;;;;7.95;2.15;;;;;;;;;;5051143;28;20033;-60
2024/01/01 14:11:05;;;;;;;11.70;2.67;;;;;;;;;;5051030;28;20384;-61
2024/01/01 14:13:30;;;;;;;6.75;2.20;;;;;;;;;;5050982;28;20025;-61
2024/01/01 14:15:56;;;;;;;8.68;2.10;;;;;;;;;;5051546;28;20033;-62
2024/01/01 14:18:21;;;;;;;7.60;2.63;;;;;;;;;;5052864;28;20039;-62
2024/01/01 14:20:46;;;;;;;10.82;2.47;;;;;;;;;;5042178;28;20087;-60
2024/01/01 14:23:14;;;;;;;11.73;2.60;;;;;;;;;;5030583;28;20111;-61
2024/01/01 14:25:40;;;;;;;12.20;2.83;;;;;;;;;;5049966;28;20025;-61
2024/01/01 14:28:08;;;;;;;9.75;2.55;;;;;;;;;;5031082;28;20095;-63
2024/01/01 14:30:35;;;;;;;12.38;2.80;;;;;;;;;;5050271;28;20374;-63
2024/01/01 14:33:00;;;;;;;13.15;3.47;;;;;;;;;;5051366;28;20037;-61
2024/01/01 14:35:25;;;;;;;6.50;2.40;;;;;;;;;;5049931;28;20116;-61